Time;durP1;ratioP1;P1;durP2;ratioP2;P2;SDS_P1;SDS_P2;PMS_P1;PMS_P2;Temp;Humidity;BMP_temperature;BMP_pressure;BME280_temperature;BME280_humidity;BME280_pressure;Samples;Min_cycle;Max_cycle;Signal;HPM_P1;HPM_P2
2022/06/16 00:04:50;;;;;;;3.50;3.30;;;21.50;68.40;;;;;;10373026;28;20721;-82
2022/06/16 00:09:52;;;;;;;4.03;3.60;;;21.50;69.70;;;;;;10373673;28;20226;-83
2022/06/16 00:14:54;;;;;;;3.87;3.67;;;21.50;69.40;;;;;;10375453;28;20186;-83
2022/06/16 00:20:00;;;;;;;4.00;3.60;;;21.50;69.40;;;;;;10398458;22;20232;-80
2022/06/16 00:25:04;;;;;;;4.23;3.93;;;21.40;68.90;;;;;;10372259;28;20224;-80
2022/06/16 00:30:08;;;;;;;4.00;3.80;;;21.40;69.00;;;;;;10370775;28;20225;-79
2022/06/16 00:35:12;;;;;;;4.17;3.87;;;21.40;67.90;;;;;;10330024;28;20199;-80
2022/06/16 00:40:15;;;;;;;3.93;3.63;;;21.30;68.40;;;;;;10368795;28;20222;-79
2022/06/16 00:45:43;;;;;;;3.97;3.70;;;21.30;68.70;;;;;;10327905;28;20672;-79
2022/06/16 00:50:50;;;;;;;4.10;3.90;;;21.20;67.90;;;;;;10296168;28;20256;-79
2022/06/16 00:55:52;;;;;;;4.17;3.77;;;21.20;70.10;;;;;;10365915;28;20188;-79
2022/06/16 01:01:14;;;;;;;4.30;4.00;;;21.20;70.60;;;;;;10329676;28;20670;-79
2022/06/16 01:06:23;;;;;;;4.00;3.70;;;21.10;70.10;;;;;;10368216;28;20199;-79
2022/06/16 01:17:19;;;;;;;4.60;4.20;;;21.00;69.60;;;;;;10357981;28;20659;-78
2022/06/16 01:22:38;;;;;;;4.07;3.77;;;21.00;70.50;;;;;;10337142;28;20289;-79
2022/06/16 01:28:03;;;;;;;4.27;3.90;;;21.00;71.40;;;;;;10324896;28;20202;-79
2022/06/16 01:33:17;;;;;;;4.47;4.17;;;21.00;71.00;;;;;;10345034;28;20221;-79
2022/06/16 01:38:23;;;;;;;4.17;3.90;;;20.90;71.40;;;;;;10369210;28;20215;-80
2022/06/16 01:43:31;;;;;;;4.63;4.17;;;20.90;71.30;;;;;;10350704;28;20227;-79
2022/06/16 01:48:37;;;;;;;4.30;3.90;;;20.90;70.60;;;;;;10346398;28;20201;-79
2022/06/16 01:53:46;;;;;;;8.07;3.93;;;20.80;70.40;;;;;;10332949;28;20215;-79
2022/06/16 01:58:53;;;;;;;3.93;3.53;;;20.80;70.40;;;;;;10346740;28;20572;-79
2022/06/16 02:04:03;;;;;;;3.20;3.00;;;20.70;71.50;;;;;;10357233;28;20247;-79
2022/06/16 02:09:10;;;;;;;4.00;3.60;;;20.70;70.00;;;;;;10363434;28;20212;-82
2022/06/16 02:14:17;;;;;;;6.13;3.93;;;20.60;69.70;;;;;;10360247;28;20589;-82
2022/06/16 02:19:24;;;;;;;3.53;3.33;;;20.60;69.50;;;;;;10362198;28;20775;-83
2022/06/16 02:24:30;;;;;;;4.10;3.80;;;20.60;68.90;;;;;;10344558;28;20223;-81
2022/06/16 02:29:37;;;;;;;5.90;4.10;;;20.50;69.60;;;;;;10364800;28;20301;-82
2022/06/16 02:34:49;;;;;;;3.60;3.40;;;20.50;69.00;;;;;;10360923;28;20192;-83
2022/06/16 02:40:16;;;;;;;3.57;3.37;;;20.40;70.00;;;;;;10362927;28;20225;-81
2022/06/16 02:45:27;;;;;;;3.80;3.50;;;20.40;71.10;;;;;;10356876;28;20219;-82
2022/06/16 02:50:39;;;;;;;3.43;3.13;;;20.30;70.70;;;;;;10367446;28;20219;-83
2022/06/16 02:55:45;;;;;;;4.30;4.00;;;20.30;71.00;;;;;;10355484;28;20741;-82
2022/06/16 03:00:54;;;;;;;4.10;3.90;;;20.30;70.60;;;;;;10368432;28;20622;-81
2022/06/16 03:05:59;;;;;;;3.87;3.67;;;20.30;71.50;;;;;;10351851;28;20246;-82
2022/06/16 03:11:02;;;;;;;4.40;4.00;;;20.20;71.90;;;;;;10367040;28;20222;-82
2022/06/16 03:16:07;;;;;;;4.53;4.23;;;20.20;72.10;;;;;;10353371;28;20207;-81
2022/06/16 03:21:10;;;;;;;4.03;3.83;;;20.20;72.30;;;;;;10370034;28;20579;-80
2022/06/16 03:26:13;;;;;;;4.80;4.50;;;20.10;73.60;;;;;;10353047;28;20234;-83
2022/06/16 03:31:15;;;;;;;4.80;4.50;;;20.10;73.10;;;;;;10366548;28;20218;-82
2022/06/16 03:36:20;;;;;;;7.33;4.37;;;20.10;74.50;;;;;;10352459;28;20234;-82
2022/06/16 03:41:22;;;;;;;4.27;4.03;;;20.10;74.00;;;;;;10349390;28;20242;-83
2022/06/16 03:46:33;;;;;;;4.40;4.10;;;20.20;72.70;;;;;;10355125;28;20302;-82
2022/06/16 03:51:48;;;;;;;4.53;4.03;;;20.10;72.00;;;;;;10365666;28;20321;-82
2022/06/16 03:56:55;;;;;;;3.90;3.70;;;20.10;73.20;;;;;;10350669;28;20208;-82
2022/06/16 04:01:57;;;;;;;4.30;4.00;;;20.10;74.40;;;;;;10365876;28;20218;-83
2022/06/16 04:07:05;;;;;;;4.43;4.13;;;20.10;76.50;;;;;;10333313;28;20199;-82
2022/06/16 04:12:10;;;;;;;4.40;4.03;;;20.30;74.00;;;;;;10365526;28;20242;-78
2022/06/16 04:17:13;;;;;;;5.10;4.70;;;20.40;72.20;;;;;;10342999;28;20214;-79
2022/06/16 04:22:19;;;;;;;4.40;4.00;;;20.50;73.30;;;;;;10357322;28;20226;-79
2022/06/16 04:27:30;;;;;;;4.50;4.20;;;20.60;73.10;;;;;;10341013;28;20195;-81
2022/06/16 04:32:33;;;;;;;4.00;3.80;;;20.70;75.30;;;;;;10359400;28;20225;-79
2022/06/16 04:37:36;;;;;;;5.37;4.87;;;20.80;73.00;;;;;;10371634;28;20250;-80
2022/06/16 04:42:39;;;;;;;4.20;3.90;;;20.90;74.00;;;;;;10343234;28;20207;-80
2022/06/16 04:47:44;;;;;;;4.23;3.93;;;20.90;73.60;;;;;;10357719;28;20498;-80
2022/06/16 04:52:48;;;;;;;4.20;3.90;;;21.00;72.70;;;;;;10341841;28;20736;-80
2022/06/16 04:57:54;;;;;;;5.10;4.67;;;21.20;71.30;;;;;;10328293;28;20282;-79
2022/06/16 05:03:15;;;;;;;4.50;4.20;;;21.30;73.30;;;;;;10359863;28;20254;-79
2022/06/16 05:08:31;;;;;;;4.90;4.60;;;21.40;72.00;;;;;;10337196;28;20194;-80
2022/06/16 05:13:52;;;;;;;5.23;4.87;;;21.50;74.10;;;;;;10364477;28;20210;-79
2022/06/16 05:19:14;;;;;;;5.23;4.93;;;21.50;73.50;;;;;;10333714;28;20227;-80
2022/06/16 05:24:37;;;;;;;7.17;5.10;;;21.60;74.60;;;;;;10367835;28;20222;-79
2022/06/16 05:30:03;;;;;;;6.23;5.53;;;21.60;75.80;;;;;;10290290;28;20235;-80
2022/06/16 05:35:31;;;;;;;6.00;5.50;;;21.60;74.00;;;;;;10365749;28;20627;-80
2022/06/16 05:41:07;;;;;;;5.60;5.20;;;21.70;75.30;;;;;;10332270;28;20233;-80
2022/06/16 05:46:28;;;;;;;5.30;4.90;;;21.80;74.90;;;;;;10362740;28;20314;-79
2022/06/16 05:51:39;;;;;;;5.50;4.80;;;21.90;73.60;;;;;;10347108;28;20309;-79
2022/06/16 05:56:46;;;;;;;5.33;4.90;;;22.00;73.20;;;;;;10350227;28;20233;-80
2022/06/16 06:01:48;;;;;;;4.70;4.40;;;22.20;72.80;;;;;;10347013;28;20268;-79
2022/06/16 06:06:53;;;;;;;4.87;4.47;;;22.40;75.50;;;;;;10367454;28;20242;-79
2022/06/16 06:17:22;;;;;;;8.60;7.80;;;22.60;74.70;;;;;;10363474;28;20199;-79
2022/06/16 06:22:27;;;;;;;6.63;6.10;;;22.60;75.10;;;;;;10358125;28;20226;-80
2022/06/16 06:27:46;;;;;;;6.23;5.73;;;22.50;73.90;;;;;;10352297;28;20195;-83
2022/06/16 06:32:50;;;;;;;7.53;6.93;;;22.40;73.80;;;;;;10356281;28;20269;-83
2022/06/16 06:37:53;;;;;;;6.77;6.23;;;22.40;74.20;;;;;;10376939;28;20203;-82
2022/06/16 06:42:57;;;;;;;7.40;5.80;;;22.50;73.70;;;;;;10337264;28;20226;-80
2022/06/16 06:47:59;;;;;;;5.10;4.60;;;22.80;71.80;;;;;;10365451;28;20199;-83
2022/06/16 06:53:01;;;;;;;5.70;5.30;;;23.10;69.90;;;;;;10353543;28;20747;-83
2022/06/16 06:58:06;;;;;;;5.73;5.17;;;23.50;72.30;;;;;;10368048;28;20195;-82
2022/06/16 07:03:10;;;;;;;5.40;4.90;;;23.90;69.70;;;;;;10336811;28;20242;-82
2022/06/16 07:08:12;;;;;;;4.73;4.30;;;24.20;67.20;;;;;;10368143;28;20731;-83
2022/06/16 07:13:16;;;;;;;4.50;4.20;;;24.50;64.90;;;;;;10351854;28;20222;-83
2022/06/16 07:18:18;;;;;;;4.67;4.37;;;24.70;68.10;;;;;;10364533;28;20214;-82
2022/06/16 07:23:20;;;;;;;5.73;5.33;;;25.00;67.30;;;;;;10352024;28;20650;-83
2022/06/16 07:28:23;;;;;;;5.77;5.37;;;25.30;66.10;;;;;;10369427;28;20278;-81
2022/06/16 07:33:26;;;;;;;5.73;5.33;;;25.70;67.00;;;;;;10346914;28;20632;-80
2022/06/16 07:38:28;;;;;;;4.93;4.53;;;26.10;64.10;;;;;;10364463;28;20202;-79
2022/06/16 07:43:32;;;;;;;5.00;4.60;;;26.30;65.00;;;;;;10345083;28;20215;-82
2022/06/16 07:48:34;;;;;;;5.40;5.00;;;26.40;63.30;;;;;;10367747;28;20222;-82
2022/06/16 07:53:36;;;;;;;5.70;5.30;;;26.50;63.30;;;;;;10342500;28;20214;-81
2022/06/16 07:58:40;;;;;;;4.50;4.30;;;26.60;63.00;;;;;;10366264;28;20647;-79
2022/06/16 08:03:42;;;;;;;5.03;4.63;;;26.90;62.10;;;;;;10344833;28;20564;-80
2022/06/16 08:08:45;;;;;;;5.77;5.00;;;27.30;62.60;;;;;;10350299;28;20195;-81
2022/06/16 08:13:49;;;;;;;5.00;4.70;;;27.90;60.60;;;;;;10374510;28;20211;-81
2022/06/16 08:18:52;;;;;;;5.37;5.07;;;28.50;61.50;;;;;;10343633;28;20199;-81
2022/06/16 08:23:54;;;;;;;6.00;5.50;;;29.20;60.10;;;;;;10360277;28;20269;-81
2022/06/16 08:28:58;;;;;;;5.87;5.30;;;29.80;59.50;;;;;;10369515;28;20213;-80
2022/06/16 08:34:00;;;;;;;5.53;5.13;;;30.30;57.20;;;;;;10357732;28;20197;-81
2022/06/16 08:39:04;;;;;;;11.93;5.10;;;30.60;56.10;;;;;;10367876;28;20269;-79
2022/06/16 08:44:13;;;;;;;5.03;4.63;;;31.00;55.30;;;;;;10368547;28;20321;-79
2022/06/16 08:49:25;;;;;;;5.30;4.80;;;31.50;53.60;;;;;;10337814;28;20308;-80
2022/06/16 08:54:44;;;;;;;4.77;4.47;;;31.40;53.20;;;;;;10351338;28;20277;-79
2022/06/16 08:59:52;;;;;;;4.90;4.60;;;31.20;53.20;;;;;;10329590;28;20645;-79
2022/06/16 09:05:03;;;;;;;5.33;4.73;;;31.10;53.40;;;;;;10348257;28;20666;-79
2022/06/16 09:10:24;;;;;;;6.00;5.50;;;31.40;53.00;;;;;;10371817;28;20222;-81
2022/06/16 09:15:34;;;;;;;4.53;4.10;;;31.80;52.80;;;;;;10376374;28;20289;-81
2022/06/16 09:20:43;;;;;;;4.83;4.43;;;32.40;51.00;;;;;;10370662;28;20254;-79
2022/06/16 09:25:58;;;;;;;4.63;4.40;;;32.70;50.20;;;;;;10378357;28;20313;-79
2022/06/16 09:31:07;;;;;;;4.70;4.40;;;33.00;50.50;;;;;;10377980;28;20271;-79
2022/06/16 09:36:13;;;;;;;4.80;4.40;;;33.50;51.20;;;;;;10375309;28;20198;-79
2022/06/16 09:46:46;;;;;;;5.53;5.03;;;34.80;49.60;;;;;;10387820;28;20237;-81
2022/06/16 09:51:55;;;;;;;5.93;4.70;;;35.90;48.30;;;;;;10385571;28;20245;-82
2022/06/16 09:57:01;;;;;;;5.40;5.00;;;37.00;46.90;;;;;;10386340;28;20643;-82
2022/06/16 10:02:12;;;;;;;5.05;4.70;;;37.70;45.90;;;;;;10392079;28;20224;-82
2022/06/16 10:07:21;;;;;;;4.53;4.23;;;37.50;46.40;;;;;;10384372;28;20218;-82
2022/06/16 10:12:31;;;;;;;7.93;4.53;;;37.20;46.50;;;;;;10383294;28;20597;-80
2022/06/16 10:17:36;;;;;;;4.80;4.50;;;37.10;46.50;;;;;;10382389;28;20387;-82
2022/06/16 10:22:41;;;;;;;4.57;4.17;;;36.60;46.60;;;;;;10386796;28;20260;-82
2022/06/16 10:27:47;;;;;;;5.00;4.60;;;35.60;46.90;;;;;;10378542;28;20222;-81
2022/06/16 10:33:00;;;;;;;6.00;5.50;;;34.40;48.20;;;;;;10378798;28;20233;-82
2022/06/16 10:38:02;;;;;;;5.10;4.80;;;33.40;49.40;;;;;;10380258;28;20198;-81
2022/06/16 10:43:11;;;;;;;6.00;4.30;;;32.50;51.10;;;;;;10381719;28;20246;-81
2022/06/16 10:48:28;;;;;;;6.67;6.17;;;31.80;52.40;;;;;;10383035;28;20202;-81
2022/06/16 10:53:35;;;;;;;5.70;4.93;;;31.10;53.10;;;;;;10378423;28;20520;-81
2022/06/16 10:58:48;;;;;;;5.23;4.90;;;30.50;53.00;;;;;;10379911;28;20229;-81
2022/06/16 11:04:05;;;;;;;5.37;4.60;;;29.90;54.40;;;;;;10382649;28;20218;-81
2022/06/16 11:09:08;;;;;;;5.80;5.43;;;29.50;54.80;;;;;;10379246;28;20202;-81
2022/06/16 11:14:16;;;;;;;5.33;4.83;;;29.10;55.90;;;;;;10374921;28;20674;-79
2022/06/16 11:19:36;;;;;;;4.83;4.27;;;28.80;55.90;;;;;;10365855;28;20733;-79
2022/06/16 11:24:38;;;;;;;5.57;4.73;;;28.60;56.10;;;;;;10371816;28;20221;-79
2022/06/16 11:29:40;;;;;;;5.70;5.10;;;28.30;56.20;;;;;;10364810;28;20268;-79
2022/06/16 11:34:45;;;;;;;5.20;4.80;;;28.20;56.30;;;;;;10341832;28;20741;-80
2022/06/16 11:39:56;;;;;;;5.67;5.27;;;28.00;57.00;;;;;;10329974;28;20215;-79
2022/06/16 11:45:05;;;;;;;5.93;5.43;;;27.80;58.30;;;;;;10332348;28;20559;-79
2022/06/16 11:50:20;;;;;;;4.70;4.40;;;27.70;58.10;;;;;;10346552;28;20225;-78
2022/06/16 11:55:33;;;;;;;5.20;4.90;;;27.70;57.60;;;;;;10317995;28;20195;-80
2022/06/16 12:00:39;;;;;;;5.43;4.93;;;27.60;56.70;;;;;;10317055;28;20265;-80
2022/06/16 12:05:47;;;;;;;5.47;4.97;;;27.50;55.90;;;;;;10331560;28;20323;-79
2022/06/16 12:10:51;;;;;;;5.00;4.60;;;27.50;56.70;;;;;;10345926;28;20277;-79
2022/06/16 12:15:57;;;;;;;4.70;4.40;;;27.50;55.80;;;;;;10329712;28;20309;-79
2022/06/16 12:21:10;;;;;;;5.60;5.20;;;27.50;55.70;;;;;;10380467;22;20619;-81
2022/06/16 12:26:20;;;;;;;5.10;4.80;;;27.50;55.70;;;;;;10383599;28;20213;-84
2022/06/16 12:31:33;;;;;;;5.47;5.07;;;27.50;55.70;;;;;;10367903;28;20711;-83
2022/06/16 12:36:41;;;;;;;5.37;4.93;;;27.50;57.10;;;;;;10350195;28;20203;-83
2022/06/16 12:41:48;;;;;;;5.53;4.70;;;27.50;57.30;;;;;;10343599;28;20223;-82
2022/06/16 12:46:55;;;;;;;4.93;4.53;;;27.60;55.40;;;;;;10355698;28;20257;-84
2022/06/16 12:52:06;;;;;;;4.50;4.20;;;27.60;55.40;;;;;;10338033;28;20281;-83
2022/06/16 12:57:15;;;;;;;6.50;5.30;;;27.60;56.50;;;;;;10355858;28;20261;-82
2022/06/16 13:02:25;;;;;;;4.83;4.53;;;27.60;55.60;;;;;;10334393;28;20230;-83
2022/06/16 13:07:32;;;;;;;4.67;4.33;;;27.70;56.40;;;;;;10339001;28;20281;-81
2022/06/16 13:12:39;;;;;;;4.87;4.57;;;27.60;56.00;;;;;;10349687;28;20233;-83
2022/06/16 13:17:48;;;;;;;5.47;4.97;;;27.60;55.40;;;;;;10343424;28;20257;-83
2022/06/16 13:22:58;;;;;;;5.03;4.63;;;27.50;53.90;;;;;;10351071;28;20227;-82
2022/06/16 13:28:01;;;;;;;4.20;4.00;;;27.50;53.60;;;;;;10372514;28;20226;-82
2022/06/16 13:33:21;;;;;;;5.07;4.57;;;27.50;54.40;;;;;;10355881;28;20233;-82
2022/06/16 13:38:44;;;;;;;4.07;3.87;;;27.50;52.00;;;;;;10350074;28;20218;-82
2022/06/16 13:44:05;;;;;;;4.30;4.10;;;27.50;53.80;;;;;;10359780;28;20224;-82
2022/06/16 13:49:07;;;;;;;6.10;5.50;;;27.50;53.40;;;;;;10359823;28;20203;-83
2022/06/16 13:54:13;;;;;;;4.23;4.03;;;27.50;53.30;;;;;;10338853;28;20219;-83
2022/06/16 13:59:26;;;;;;;4.87;4.57;;;27.50;52.20;;;;;;10337143;28;20203;-83
2022/06/16 14:04:29;;;;;;;5.20;4.80;;;27.50;54.40;;;;;;10333527;28;20227;-82
2022/06/16 14:09:35;;;;;;;5.90;5.00;;;27.50;54.20;;;;;;10349383;28;20241;-80
2022/06/16 14:15:02;;;;;;;5.20;4.90;;;27.50;53.90;;;;;;10358441;28;20239;-82
2022/06/16 14:20:12;;;;;;;4.90;4.60;;;27.50;54.20;;;;;;10352709;28;20273;-81
2022/06/16 14:25:21;;;;;;;5.17;4.87;;;27.50;54.90;;;;;;10356970;28;20314;-82
2022/06/16 14:30:27;;;;;;;4.93;4.53;;;27.50;54.80;;;;;;10363621;28;20250;-81
2022/06/16 14:35:37;;;;;;;5.83;5.33;;;27.50;54.50;;;;;;10349358;28;20608;-83
2022/06/16 14:40:46;;;;;;;5.50;5.10;;;27.50;55.50;;;;;;10357610;28;20224;-83
2022/06/16 14:45:56;;;;;;;6.10;5.60;;;27.50;55.50;;;;;;10366801;28;20285;-81
2022/06/16 14:51:02;;;;;;;5.30;5.00;;;27.40;55.10;;;;;;10346306;28;20258;-83
2022/06/16 14:56:10;;;;;;;5.80;5.40;;;27.40;55.50;;;;;;10352321;28;20209;-83
2022/06/16 15:01:13;;;;;;;5.07;4.67;;;27.30;56.50;;;;;;10366454;28;20223;-81
2022/06/16 15:06:16;;;;;;;5.60;5.13;;;27.30;54.60;;;;;;10367937;28;20226;-80
2022/06/16 15:11:23;;;;;;;4.77;4.47;;;27.20;53.70;;;;;;10362882;28;20768;-83
2022/06/16 15:21:50;;;;;;;5.83;5.33;;;27.20;55.50;;;;;;10358983;28;20240;-80
2022/06/16 15:26:58;;;;;;;5.70;5.27;;;27.20;54.10;;;;;;10368529;28;20226;-81
2022/06/16 15:32:00;;;;;;;6.80;5.43;;;27.20;54.60;;;;;;10359540;28;20550;-82
2022/06/16 15:37:07;;;;;;;5.10;4.80;;;27.20;54.40;;;;;;10354008;28;20203;-82
2022/06/16 15:42:19;;;;;;;4.60;4.30;;;27.20;54.70;;;;;;10365728;28;20234;-81
2022/06/16 15:47:28;;;;;;;5.50;5.10;;;27.20;54.60;;;;;;10366859;28;20222;-81
2022/06/16 15:52:34;;;;;;;6.83;5.10;;;27.10;54.30;;;;;;10340795;28;20276;-81
2022/06/16 15:57:39;;;;;;;6.27;5.67;;;27.10;54.40;;;;;;10359907;28;20202;-83
2022/06/16 16:02:46;;;;;;;5.50;5.00;;;27.10;54.00;;;;;;10366986;28;20710;-83
2022/06/16 16:07:49;;;;;;;4.60;4.30;;;27.10;53.80;;;;;;10360749;28;20313;-81
2022/06/16 16:13:03;;;;;;;4.60;4.40;;;27.20;54.20;;;;;;10357758;28;20326;-82
2022/06/16 16:18:07;;;;;;;5.33;4.50;;;27.20;53.60;;;;;;10367558;28;20294;-82
2022/06/16 16:23:17;;;;;;;4.93;4.53;;;27.10;53.50;;;;;;10369284;28;20237;-82
2022/06/16 16:28:23;;;;;;;4.70;4.40;;;27.10;53.50;;;;;;10365915;28;20780;-81
2022/06/16 16:33:29;;;;;;;4.37;4.10;;;27.00;53.90;;;;;;10349438;28;20250;-84
2022/06/16 16:38:42;;;;;;;4.63;4.30;;;27.00;52.00;;;;;;10326451;28;20195;-81
2022/06/16 16:43:50;;;;;;;4.07;3.83;;;27.00;52.00;;;;;;10337900;28;20219;-84
2022/06/16 16:48:53;;;;;;;4.50;4.20;;;27.00;51.60;;;;;;10368564;28;20222;-81
2022/06/16 16:53:57;;;;;;;5.30;4.90;;;26.90;52.30;;;;;;10376966;28;20273;-83
2022/06/16 16:59:03;;;;;;;4.13;3.83;;;26.90;51.00;;;;;;10360487;28;20203;-81
2022/06/16 17:04:12;;;;;;;4.03;3.73;;;26.90;49.80;;;;;;10349698;28;20614;-82
2022/06/16 17:09:15;;;;;;;7.53;4.13;;;26.80;50.20;;;;;;10348168;28;20226;-81
2022/06/16 17:14:21;;;;;;;3.83;3.63;;;26.80;50.10;;;;;;10357984;28;20203;-84
2022/06/16 17:19:25;;;;;;;4.27;3.83;;;26.80;48.90;;;;;;10342638;28;20202;-82
2022/06/16 17:24:28;;;;;;;4.03;3.83;;;26.80;47.80;;;;;;10360341;28;20832;-80
2022/06/16 17:29:32;;;;;;;4.17;3.90;;;26.70;49.50;;;;;;10361078;28;20228;-81
2022/06/16 17:34:37;;;;;;;4.40;3.67;;;26.60;50.30;;;;;;10370117;28;20206;-81
2022/06/16 17:39:39;;;;;;;3.70;3.60;;;26.50;49.40;;;;;;10361657;28;20429;-82
2022/06/16 17:44:43;;;;;;;3.07;2.90;;;26.40;50.70;;;;;;10384379;28;20616;-81
2022/06/16 17:49:46;;;;;;;3.10;2.90;;;26.40;49.00;;;;;;10367811;28;20218;-82
2022/06/16 18:00:14;;;;;;;3.00;2.80;;;26.40;48.80;;;;;;10357432;28;20211;-81
2022/06/16 18:05:16;;;;;;;3.53;3.23;;;26.30;48.90;;;;;;10367787;28;20716;-83
2022/06/16 18:10:24;;;;;;;3.90;3.60;;;26.30;47.70;;;;;;10362331;28;20224;-82
2022/06/16 18:15:27;;;;;;;2.87;2.77;;;26.20;47.30;;;;;;10365608;28;20245;-82
2022/06/16 18:20:33;;;;;;;3.37;3.10;;;26.20;48.30;;;;;;10381438;22;20317;-80
2022/06/16 18:25:38;;;;;;;3.37;3.20;;;26.10;48.00;;;;;;10401462;28;20225;-80
2022/06/16 18:30:41;;;;;;;3.30;3.10;;;26.00;48.00;;;;;;10391651;28;20709;-80
2022/06/16 18:35:45;;;;;;;2.97;2.87;;;25.90;47.60;;;;;;10361273;28;20552;-80
2022/06/16 18:40:49;;;;;;;3.50;3.00;;;25.80;46.50;;;;;;10363629;28;20245;-81
2022/06/16 18:45:53;;;;;;;5.00;3.57;;;25.70;46.60;;;;;;10383381;28;20305;-83
2022/06/16 18:50:55;;;;;;;3.37;3.17;;;25.60;48.80;;;;;;10379278;28;20225;-82
2022/06/16 18:55:58;;;;;;;3.73;3.50;;;25.50;48.90;;;;;;10377012;28;20202;-82
2022/06/16 19:01:02;;;;;;;3.50;3.40;;;25.40;49.40;;;;;;10379589;28;20223;-82
2022/06/16 19:06:05;;;;;;;4.00;3.70;;;25.40;49.10;;;;;;10382610;28;20670;-83
2022/06/16 19:11:07;;;;;;;3.80;3.60;;;25.30;51.30;;;;;;10384406;28;20225;-83
2022/06/16 19:16:11;;;;;;;3.77;3.40;;;25.20;52.70;;;;;;10382464;28;20199;-83
2022/06/16 19:21:15;;;;;;;4.13;3.83;;;25.10;50.90;;;;;;10374015;28;20234;-83
2022/06/16 19:26:19;;;;;;;4.50;4.13;;;25.10;52.00;;;;;;10379492;28;20226;-79
2022/06/16 19:31:26;;;;;;;3.50;3.30;;;25.00;53.20;;;;;;10373128;28;20246;-82
2022/06/16 19:36:29;;;;;;;3.30;3.10;;;24.90;52.40;;;;;;10380004;28;20269;-82
2022/06/16 19:41:34;;;;;;;4.30;4.00;;;24.80;52.80;;;;;;10361442;28;20329;-81
2022/06/16 19:51:59;;;;;;;3.60;3.40;;;24.70;54.00;;;;;;10372530;28;20218;-82
2022/06/16 19:57:02;;;;;;;4.20;3.80;;;24.60;53.70;;;;;;10379119;28;20194;-82
2022/06/16 20:02:08;;;;;;;3.60;3.30;;;24.50;53.40;;;;;;10373026;28;20282;-82
2022/06/16 20:07:13;;;;;;;3.50;3.30;;;24.40;54.00;;;;;;10353869;28;20223;-82
2022/06/16 20:12:15;;;;;;;4.50;3.90;;;24.30;54.90;;;;;;10344298;28;20223;-81
2022/06/16 20:17:19;;;;;;;3.63;3.53;;;24.10;54.90;;;;;;10352765;28;20218;-80
2022/06/16 20:22:21;;;;;;;4.27;3.83;;;24.00;55.30;;;;;;10357046;28;20277;-80
2022/06/16 20:27:23;;;;;;;4.37;4.07;;;23.90;54.60;;;;;;10342764;28;20705;-80
2022/06/16 20:32:27;;;;;;;4.83;4.50;;;23.70;55.60;;;;;;10326234;28;20592;-80
2022/06/16 20:37:30;;;;;;;4.10;3.63;;;23.60;55.90;;;;;;10332031;28;20557;-80
2022/06/16 20:42:32;;;;;;;4.47;4.17;;;23.40;56.30;;;;;;10352921;28;20714;-78
2022/06/16 20:47:36;;;;;;;4.27;3.97;;;23.30;56.50;;;;;;10338728;28;20234;-78
2022/06/16 20:52:41;;;;;;;4.40;4.10;;;23.20;56.00;;;;;;10349880;28;20227;-78
2022/06/16 21:03:05;;;;;;;3.87;3.67;;;23.00;56.70;;;;;;10348975;28;20284;-78
2022/06/16 21:08:12;;;;;;;4.70;4.30;;;23.00;56.70;;;;;;10352825;28;20222;-78
2022/06/16 21:13:15;;;;;;;4.13;3.83;;;22.90;56.60;;;;;;10359755;28;20602;-78
2022/06/16 21:18:22;;;;;;;4.50;4.20;;;22.90;56.90;;;;;;10351088;28;20842;-79
2022/06/16 21:23:27;;;;;;;4.23;3.90;;;22.80;57.20;;;;;;10346331;28;20244;-79
2022/06/16 21:28:29;;;;;;;4.17;3.87;;;22.80;57.10;;;;;;10350146;28;20218;-77
2022/06/16 21:33:35;;;;;;;3.77;3.47;;;22.80;57.10;;;;;;10347950;28;20305;-77
2022/06/16 21:38:37;;;;;;;3.63;3.43;;;22.70;57.00;;;;;;10348730;28;20204;-77
2022/06/16 21:43:42;;;;;;;3.90;3.70;;;22.60;57.20;;;;;;10349266;28;20226;-77
2022/06/16 21:48:48;;;;;;;4.43;3.73;;;22.60;57.40;;;;;;10352988;28;20225;-77
2022/06/16 21:53:50;;;;;;;4.90;3.87;;;22.50;57.70;;;;;;10349658;28;20668;-77
2022/06/16 21:58:53;;;;;;;5.10;3.80;;;22.50;57.40;;;;;;10347238;28;20284;-78
2022/06/16 22:03:56;;;;;;;4.23;2.97;;;22.40;57.60;;;;;;10349399;28;20265;-77
2022/06/16 22:08:59;;;;;;;3.97;3.77;;;22.30;57.60;;;;;;10349349;28;20314;-78
2022/06/16 22:14:01;;;;;;;3.50;3.30;;;22.20;57.80;;;;;;10346431;28;20233;-78
2022/06/16 22:19:10;;;;;;;5.13;3.57;;;22.10;58.30;;;;;;10347483;28;20204;-79
2022/06/16 22:24:12;;;;;;;4.27;4.03;;;22.10;59.00;;;;;;10354827;28;20246;-77
2022/06/16 22:29:16;;;;;;;3.83;3.63;;;22.00;58.70;;;;;;10356719;28;20250;-76
2022/06/16 22:34:20;;;;;;;4.50;3.53;;;22.00;58.90;;;;;;10354667;28;20261;-77
2022/06/16 22:44:38;;;;;;;3.40;3.20;;;21.90;57.90;;;;;;10355601;28;20284;-78
2022/06/16 22:49:43;;;;;;;3.20;3.10;;;21.80;60.20;;;;;;10351712;28;20229;-79
2022/06/16 23:00:06;;;;;;;4.50;3.60;;;21.90;58.10;;;;;;10354214;28;20712;-79
2022/06/16 23:05:11;;;;;;;3.37;3.17;;;22.00;58.00;;;;;;10360363;28;20206;-79
2022/06/16 23:10:16;;;;;;;3.40;3.20;;;22.00;57.70;;;;;;10369160;28;20226;-80
2022/06/16 23:15:20;;;;;;;4.80;3.37;;;22.00;58.20;;;;;;10369628;28;20214;-79
2022/06/16 23:20:25;;;;;;;3.17;3.00;;;22.00;57.70;;;;;;10371457;28;20226;-79
2022/06/16 23:25:28;;;;;;;3.63;3.30;;;21.90;58.00;;;;;;10371149;28;20203;-80
2022/06/16 23:30:30;;;;;;;3.40;3.10;;;21.80;58.60;;;;;;10363671;28;20772;-79
2022/06/16 23:35:34;;;;;;;3.43;3.13;;;21.70;58.90;;;;;;10367954;28;20234;-78
2022/06/16 23:40:36;;;;;;;3.10;2.80;;;21.60;58.50;;;;;;10369208;28;20240;-78
2022/06/16 23:45:39;;;;;;;3.20;3.10;;;21.50;58.60;;;;;;10370552;28;20253;-78
2022/06/16 23:50:42;;;;;;;2.90;2.70;;;21.40;59.00;;;;;;10372163;28;20819;-78
2022/06/16 23:55:45;;;;;;;3.20;3.00;;;21.40;58.70;;;;;;10361710;28;20244;-79
